sensor_id;sensor_type;location;lat;lon;timestamp;pressure;altitude;pressure_sealevel;temperature;humidity
70198;BME280;57582;-34.876;138.628;2023-06-14T00:02:39;101329;;;13.14;70.49
70198;BME280;57582;-34.876;138.628;2023-06-14T00:05:37;101331;;;13.15;70.41
70198;BME280;57582;-34.876;138.628;2023-06-14T00:08:37;101338;;;13.24;70.49
70198;BME280;57582;-34.876;138.628;2023-06-14T00:11:37;101346;;;13.40;70.58
70198;BME280;57582;-34.876;138.628;2023-06-14T00:14:38;101346;;;13.35;70.39
70198;BME280;57582;-34.876;138.628;2023-06-14T00:17:37;101343;;;13.26;70.98
70198;BME280;57582;-34.876;138.628;2023-06-14T00:20:38;101347;;;13.44;71.07
70198;BME280;57582;-34.876;138.628;2023-06-14T00:23:37;101345;;;13.55;70.65
70198;BME280;57582;-34.876;138.628;2023-06-14T00:26:38;101349;;;13.68;70.28
70198;BME280;57582;-34.876;138.628;2023-06-14T00:29:37;101350;;;13.49;70.88
70198;BME280;57582;-34.876;138.628;2023-06-14T00:32:38;101346;;;13.61;70.90
70198;BME280;57582;-34.876;138.628;2023-06-14T00:35:37;101343;;;13.72;71.13
70198;BME280;57582;-34.876;138.628;2023-06-14T00:38:38;101343;;;13.86;71.25
70198;BME280;57582;-34.876;138.628;2023-06-14T00:41:37;101331;;;13.94;70.65
70198;BME280;57582;-34.876;138.628;2023-06-14T00:44:38;101335;;;14.21;70.54
70198;BME280;57582;-34.876;138.628;2023-06-14T00:47:37;101332;;;14.35;70.11
70198;BME280;57582;-34.876;138.628;2023-06-14T00:50:38;101333;;;14.55;70.05
70198;BME280;57582;-34.876;138.628;2023-06-14T00:53:37;101328;;;14.80;69.58
70198;BME280;57582;-34.876;138.628;2023-06-14T00:56:39;101332;;;14.92;69.17
70198;BME280;57582;-34.876;138.628;2023-06-14T00:59:46;101330;;;15.08;69.15
70198;BME280;57582;-34.876;138.628;2023-06-14T01:02:38;101324;;;15.13;69.01
70198;BME280;57582;-34.876;138.628;2023-06-14T01:05:37;101335;;;15.09;68.70
70198;BME280;57582;-34.876;138.628;2023-06-14T01:11:39;101330;;;15.05;69.34
70198;BME280;57582;-34.876;138.628;2023-06-14T01:14:38;101330;;;15.21;69.96
70198;BME280;57582;-34.876;138.628;2023-06-14T01:17:37;101326;;;15.28;69.61
70198;BME280;57582;-34.876;138.628;2023-06-14T01:20:38;101326;;;15.42;69.27
70198;BME280;57582;-34.876;138.628;2023-06-14T01:23:37;101327;;;15.54;69.33
70198;BME280;57582;-34.876;138.628;2023-06-14T01:26:38;101325;;;15.57;69.48
70198;BME280;57582;-34.876;138.628;2023-06-14T01:29:37;101328;;;15.60;69.33
70198;BME280;57582;-34.876;138.628;2023-06-14T01:32:38;101328;;;15.61;69.34
70198;BME280;57582;-34.876;138.628;2023-06-14T01:35:37;101331;;;15.46;69.37
70198;BME280;57582;-34.876;138.628;2023-06-14T01:38:38;101328;;;15.39;69.24
70198;BME280;57582;-34.876;138.628;2023-06-14T01:41:37;101325;;;15.39;69.93
70198;BME280;57582;-34.876;138.628;2023-06-14T01:44:38;101324;;;15.35;70.08
70198;BME280;57582;-34.876;138.628;2023-06-14T01:47:37;101315;;;15.38;70.07
70198;BME280;57582;-34.876;138.628;2023-06-14T01:50:39;101314;;;15.51;69.91
70198;BME280;57582;-34.876;138.628;2023-06-14T01:53:37;101314;;;15.51;69.46
70198;BME280;57582;-34.876;138.628;2023-06-14T01:56:39;101314;;;15.47;69.35
70198;BME280;57582;-34.876;138.628;2023-06-14T01:59:37;101314;;;15.41;69.58
70198;BME280;57582;-34.876;138.628;2023-06-14T02:02:38;101305;;;15.44;69.79
70198;BME280;57582;-34.876;138.628;2023-06-14T02:05:37;101301;;;15.43;69.70
70198;BME280;57582;-34.876;138.628;2023-06-14T02:08:38;101298;;;15.48;69.92
70198;BME280;57582;-34.876;138.628;2023-06-14T02:11:37;101295;;;15.46;70.00
70198;BME280;57582;-34.876;138.628;2023-06-14T02:14:38;101293;;;15.43;69.79
70198;BME280;57582;-34.876;138.628;2023-06-14T02:17:37;101280;;;15.55;69.61
70198;BME280;57582;-34.876;138.628;2023-06-14T02:20:38;101287;;;15.70;69.26
70198;BME280;57582;-34.876;138.628;2023-06-14T02:23:37;101286;;;15.89;68.70
70198;BME280;57582;-34.876;138.628;2023-06-14T02:26:38;101283;;;15.84;67.93
70198;BME280;57582;-34.876;138.628;2023-06-14T02:29:37;101288;;;15.77;67.94
70198;BME280;57582;-34.876;138.628;2023-06-14T02:32:38;101278;;;15.81;67.78
70198;BME280;57582;-34.876;138.628;2023-06-14T02:35:37;101277;;;15.82;68.22
70198;BME280;57582;-34.876;138.628;2023-06-14T02:38:38;101272;;;15.79;68.22
70198;BME280;57582;-34.876;138.628;2023-06-14T02:41:37;101275;;;15.79;67.64
70198;BME280;57582;-34.876;138.628;2023-06-14T02:44:38;101270;;;15.71;67.63
70198;BME280;57582;-34.876;138.628;2023-06-14T02:47:37;101264;;;15.60;68.73
70198;BME280;57582;-34.876;138.628;2023-06-14T02:50:38;101258;;;15.56;68.69
70198;BME280;57582;-34.876;138.628;2023-06-14T02:53:37;101252;;;15.54;68.65
70198;BME280;57582;-34.876;138.628;2023-06-14T02:56:38;101247;;;15.56;68.46
70198;BME280;57582;-34.876;138.628;2023-06-14T02:59:37;101245;;;15.55;68.82
70198;BME280;57582;-34.876;138.628;2023-06-14T03:02:38;101240;;;15.55;69.23
70198;BME280;57582;-34.876;138.628;2023-06-14T03:05:37;101229;;;15.57;69.55
70198;BME280;57582;-34.876;138.628;2023-06-14T03:08:38;101231;;;15.67;68.99
70198;BME280;57582;-34.876;138.628;2023-06-14T03:11:37;101224;;;15.68;68.36
70198;BME280;57582;-34.876;138.628;2023-06-14T03:14:38;101223;;;15.71;68.08
70198;BME280;57582;-34.876;138.628;2023-06-14T03:17:37;101223;;;15.77;68.63
70198;BME280;57582;-34.876;138.628;2023-06-14T03:20:38;101217;;;15.71;67.91
70198;BME280;57582;-34.876;138.628;2023-06-14T03:23:38;101218;;;15.67;67.84
70198;BME280;57582;-34.876;138.628;2023-06-14T03:26:38;101216;;;15.57;68.12
70198;BME280;57582;-34.876;138.628;2023-06-14T03:29:37;101197;;;15.52;68.00
70198;BME280;57582;-34.876;138.628;2023-06-14T03:32:38;101205;;;15.60;68.15
70198;BME280;57582;-34.876;138.628;2023-06-14T03:35:38;101201;;;15.64;67.91
70198;BME280;57582;-34.876;138.628;2023-06-14T03:38:38;101191;;;15.50;67.74
70198;BME280;57582;-34.876;138.628;2023-06-14T03:41:38;101193;;;15.43;67.70
70198;BME280;57582;-34.876;138.628;2023-06-14T03:44:38;101198;;;15.48;68.21
70198;BME280;57582;-34.876;138.628;2023-06-14T03:47:38;101181;;;15.52;67.98
70198;BME280;57582;-34.876;138.628;2023-06-14T03:50:38;101182;;;15.51;67.19
70198;BME280;57582;-34.876;138.628;2023-06-14T03:53:38;101175;;;15.49;67.67
70198;BME280;57582;-34.876;138.628;2023-06-14T03:56:38;101177;;;15.30;67.68
70198;BME280;57582;-34.876;138.628;2023-06-14T03:59:38;101179;;;15.35;67.64
70198;BME280;57582;-34.876;138.628;2023-06-14T04:02:38;101168;;;15.28;67.88
70198;BME280;57582;-34.876;138.628;2023-06-14T04:05:38;101178;;;15.24;69.64
70198;BME280;57582;-34.876;138.628;2023-06-14T04:08:38;101173;;;15.25;71.66
70198;BME280;57582;-34.876;138.628;2023-06-14T04:11:38;101181;;;15.12;72.13
70198;BME280;57582;-34.876;138.628;2023-06-14T04:14:39;101168;;;15.10;73.01
70198;BME280;57582;-34.876;138.628;2023-06-14T04:17:38;101165;;;15.13;73.98
70198;BME280;57582;-34.876;138.628;2023-06-14T04:20:38;101156;;;15.15;73.66
70198;BME280;57582;-34.876;138.628;2023-06-14T04:23:38;101145;;;15.24;74.62
70198;BME280;57582;-34.876;138.628;2023-06-14T04:26:39;101153;;;15.25;74.11
70198;BME280;57582;-34.876;138.628;2023-06-14T04:29:38;101139;;;15.24;73.36
70198;BME280;57582;-34.876;138.628;2023-06-14T04:32:38;101140;;;15.21;72.56
70198;BME280;57582;-34.876;138.628;2023-06-14T04:35:38;101148;;;15.21;73.46
70198;BME280;57582;-34.876;138.628;2023-06-14T04:38:39;101152;;;15.19;74.46
70198;BME280;57582;-34.876;138.628;2023-06-14T04:41:38;101159;;;14.97;73.71
70198;BME280;57582;-34.876;138.628;2023-06-14T04:44:38;101160;;;14.85;74.22
70198;BME280;57582;-34.876;138.628;2023-06-14T04:47:38;101162;;;14.68;74.96
70198;BME280;57582;-34.876;138.628;2023-06-14T04:50:39;101156;;;14.46;75.66
70198;BME280;57582;-34.876;138.628;2023-06-14T04:53:38;101163;;;14.33;77.36
70198;BME280;57582;-34.876;138.628;2023-06-14T04:56:38;101164;;;14.25;78.45
70198;BME280;57582;-34.876;138.628;2023-06-14T04:59:38;101172;;;14.32;78.74
70198;BME280;57582;-34.876;138.628;2023-06-14T05:02:38;101176;;;14.29;79.95
70198;BME280;57582;-34.876;138.628;2023-06-14T05:05:39;101173;;;14.29;79.80
70198;BME280;57582;-34.876;138.628;2023-06-14T05:08:39;101179;;;14.18;79.88
70198;BME280;57582;-34.876;138.628;2023-06-14T05:11:38;101173;;;14.21;80.57
70198;BME280;57582;-34.876;138.628;2023-06-14T05:14:38;101174;;;14.25;80.53
70198;BME280;57582;-34.876;138.628;2023-06-14T05:17:38;101169;;;14.27;80.15
70198;BME280;57582;-34.876;138.628;2023-06-14T05:20:38;101176;;;14.26;80.05
70198;BME280;57582;-34.876;138.628;2023-06-14T05:23:38;101168;;;14.31;80.22
70198;BME280;57582;-34.876;138.628;2023-06-14T05:26:38;101176;;;14.32;80.09
70198;BME280;57582;-34.876;138.628;2023-06-14T05:29:38;101178;;;14.37;80.65
70198;BME280;57582;-34.876;138.628;2023-06-14T05:32:38;101178;;;14.50;80.49
70198;BME280;57582;-34.876;138.628;2023-06-14T05:35:38;101170;;;14.45;79.97
70198;BME280;57582;-34.876;138.628;2023-06-14T05:38:38;101168;;;14.52;80.39
70198;BME280;57582;-34.876;138.628;2023-06-14T05:41:38;101179;;;14.57;80.07
70198;BME280;57582;-34.876;138.628;2023-06-14T05:44:38;101169;;;14.46;80.29
70198;BME280;57582;-34.876;138.628;2023-06-14T05:47:38;101165;;;14.46;80.08
70198;BME280;57582;-34.876;138.628;2023-06-14T05:50:38;101162;;;14.61;80.06
70198;BME280;57582;-34.876;138.628;2023-06-14T05:53:38;101157;;;14.57;78.77
70198;BME280;57582;-34.876;138.628;2023-06-14T05:56:38;101161;;;14.67;78.45
70198;BME280;57582;-34.876;138.628;2023-06-14T05:59:38;101161;;;14.73;78.20
70198;BME280;57582;-34.876;138.628;2023-06-14T06:02:38;101170;;;14.67;77.97
70198;BME280;57582;-34.876;138.628;2023-06-14T06:05:38;101167;;;14.69;77.82
70198;BME280;57582;-34.876;138.628;2023-06-14T06:08:38;101167;;;14.56;78.22
70198;BME280;57582;-34.876;138.628;2023-06-14T06:11:38;101166;;;14.65;78.23
70198;BME280;57582;-34.876;138.628;2023-06-14T06:14:38;101165;;;14.74;78.08
70198;BME280;57582;-34.876;138.628;2023-06-14T06:17:38;101166;;;14.76;77.86
70198;BME280;57582;-34.876;138.628;2023-06-14T06:20:38;101161;;;14.82;78.12
70198;BME280;57582;-34.876;138.628;2023-06-14T06:23:38;101168;;;14.91;77.95
70198;BME280;57582;-34.876;138.628;2023-06-14T06:26:38;101160;;;14.88;77.88
70198;BME280;57582;-34.876;138.628;2023-06-14T06:29:38;101163;;;14.89;77.94
70198;BME280;57582;-34.876;138.628;2023-06-14T06:32:39;101158;;;14.93;77.94
70198;BME280;57582;-34.876;138.628;2023-06-14T06:35:38;101158;;;14.90;78.06
70198;BME280;57582;-34.876;138.628;2023-06-14T06:38:38;101152;;;14.93;78.32
70198;BME280;57582;-34.876;138.628;2023-06-14T06:41:38;101158;;;14.93;78.59
70198;BME280;57582;-34.876;138.628;2023-06-14T06:44:38;101152;;;15.02;78.61
70198;BME280;57582;-34.876;138.628;2023-06-14T06:47:38;101152;;;14.96;78.69
70198;BME280;57582;-34.876;138.628;2023-06-14T06:50:38;101157;;;15.03;79.10
70198;BME280;57582;-34.876;138.628;2023-06-14T06:53:38;101151;;;15.24;79.30
70198;BME280;57582;-34.876;138.628;2023-06-14T06:56:38;101149;;;15.46;79.31
70198;BME280;57582;-34.876;138.628;2023-06-14T06:59:38;101138;;;15.70;77.33
70198;BME280;57582;-34.876;138.628;2023-06-14T07:02:38;101141;;;15.90;76.85
70198;BME280;57582;-34.876;138.628;2023-06-14T07:05:38;101134;;;16.07;75.57
70198;BME280;57582;-34.876;138.628;2023-06-14T07:08:39;101135;;;16.22;74.02
70198;BME280;57582;-34.876;138.628;2023-06-14T07:11:38;101134;;;16.15;73.21
70198;BME280;57582;-34.876;138.628;2023-06-14T07:14:38;101136;;;16.27;73.42
70198;BME280;57582;-34.876;138.628;2023-06-14T07:17:38;101134;;;16.35;72.76
70198;BME280;57582;-34.876;138.628;2023-06-14T07:20:38;101142;;;16.29;71.60
70198;BME280;57582;-34.876;138.628;2023-06-14T07:23:38;101132;;;16.19;71.94
70198;BME280;57582;-34.876;138.628;2023-06-14T07:26:39;101139;;;16.20;72.24
70198;BME280;57582;-34.876;138.628;2023-06-14T07:29:38;101131;;;15.90;72.62
70198;BME280;57582;-34.876;138.628;2023-06-14T07:32:39;101143;;;15.66;73.43
70198;BME280;57582;-34.876;138.628;2023-06-14T07:35:38;101140;;;15.39;73.97
70198;BME280;57582;-34.876;138.628;2023-06-14T07:38:38;101142;;;15.22;74.82
70198;BME280;57582;-34.876;138.628;2023-06-14T07:41:38;101144;;;15.33;74.65
70198;BME280;57582;-34.876;138.628;2023-06-14T07:44:39;101141;;;15.30;74.53
70198;BME280;57582;-34.876;138.628;2023-06-14T07:47:38;101143;;;15.36;74.13
70198;BME280;57582;-34.876;138.628;2023-06-14T07:50:38;101148;;;15.46;73.75
70198;BME280;57582;-34.876;138.628;2023-06-14T07:53:38;101146;;;15.54;73.35
70198;BME280;57582;-34.876;138.628;2023-06-14T07:56:38;101153;;;15.55;72.75
70198;BME280;57582;-34.876;138.628;2023-06-14T07:59:38;101153;;;15.58;72.13
70198;BME280;57582;-34.876;138.628;2023-06-14T08:02:38;101150;;;15.59;72.20
70198;BME280;57582;-34.876;138.628;2023-06-14T08:05:38;101158;;;15.63;71.99
70198;BME280;57582;-34.876;138.628;2023-06-14T08:08:38;101161;;;15.69;71.29
70198;BME280;57582;-34.876;138.628;2023-06-14T08:11:38;101160;;;15.71;71.16
70198;BME280;57582;-34.876;138.628;2023-06-14T08:14:39;101152;;;15.76;70.95
70198;BME280;57582;-34.876;138.628;2023-06-14T08:17:38;101165;;;15.82;70.36
70198;BME280;57582;-34.876;138.628;2023-06-14T08:20:39;101160;;;15.77;70.15
70198;BME280;57582;-34.876;138.628;2023-06-14T08:23:38;101167;;;15.84;70.56
70198;BME280;57582;-34.876;138.628;2023-06-14T08:26:38;101166;;;15.76;70.45
70198;BME280;57582;-34.876;138.628;2023-06-14T08:29:38;101166;;;15.72;70.93
70198;BME280;57582;-34.876;138.628;2023-06-14T08:32:38;101174;;;15.80;70.35
70198;BME280;57582;-34.876;138.628;2023-06-14T08:35:38;101192;;;15.85;69.80
70198;BME280;57582;-34.876;138.628;2023-06-14T08:38:39;101184;;;15.80;69.78
70198;BME280;57582;-34.876;138.628;2023-06-14T08:41:38;101178;;;15.81;69.65
70198;BME280;57582;-34.876;138.628;2023-06-14T08:44:39;101184;;;15.80;69.67
70198;BME280;57582;-34.876;138.628;2023-06-14T08:47:38;101185;;;15.74;69.79
70198;BME280;57582;-34.876;138.628;2023-06-14T08:50:39;101186;;;15.80;69.78
70198;BME280;57582;-34.876;138.628;2023-06-14T08:53:38;101189;;;15.80;69.78
70198;BME280;57582;-34.876;138.628;2023-06-14T08:56:38;101193;;;15.71;70.01
70198;BME280;57582;-34.876;138.628;2023-06-14T08:59:39;101199;;;15.60;70.34
70198;BME280;57582;-34.876;138.628;2023-06-14T09:02:39;101198;;;15.28;71.61
70198;BME280;57582;-34.876;138.628;2023-06-14T09:05:38;101195;;;15.12;72.38
70198;BME280;57582;-34.876;138.628;2023-06-14T09:08:40;101193;;;15.07;72.56
70198;BME280;57582;-34.876;138.628;2023-06-14T09:11:41;101193;;;15.04;72.85
70198;BME280;57582;-34.876;138.628;2023-06-14T09:14:38;101183;;;14.95;72.97
70198;BME280;57582;-34.876;138.628;2023-06-14T09:17:38;101192;;;14.87;73.37
70198;BME280;57582;-34.876;138.628;2023-06-14T09:20:38;101193;;;14.85;73.70
70198;BME280;57582;-34.876;138.628;2023-06-14T09:23:40;101185;;;14.80;73.83
70198;BME280;57582;-34.876;138.628;2023-06-14T09:26:40;101188;;;14.73;74.24
70198;BME280;57582;-34.876;138.628;2023-06-14T09:29:38;101193;;;14.68;74.14
70198;BME280;57582;-34.876;138.628;2023-06-14T09:32:39;101194;;;14.71;74.17
70198;BME280;57582;-34.876;138.628;2023-06-14T09:35:38;101192;;;14.58;74.64
70198;BME280;57582;-34.876;138.628;2023-06-14T09:38:40;101197;;;14.45;75.16
70198;BME280;57582;-34.876;138.628;2023-06-14T09:41:39;101188;;;14.36;75.64
70198;BME280;57582;-34.876;138.628;2023-06-14T09:44:38;101197;;;14.27;76.14
70198;BME280;57582;-34.876;138.628;2023-06-14T09:47:38;101206;;;14.32;76.04
70198;BME280;57582;-34.876;138.628;2023-06-14T09:50:39;101202;;;14.32;76.30
70198;BME280;57582;-34.876;138.628;2023-06-14T09:53:38;101212;;;14.39;76.13
70198;BME280;57582;-34.876;138.628;2023-06-14T09:56:41;101201;;;14.56;75.97
70198;BME280;57582;-34.876;138.628;2023-06-14T09:59:42;101213;;;14.70;75.17
70198;BME280;57582;-34.876;138.628;2023-06-14T10:02:38;101213;;;14.78;74.71
70198;BME280;57582;-34.876;138.628;2023-06-14T10:05:39;101215;;;14.80;74.34
70198;BME280;57582;-34.876;138.628;2023-06-14T10:08:39;101219;;;14.84;74.60
70198;BME280;57582;-34.876;138.628;2023-06-14T10:11:38;101221;;;15.01;73.95
70198;BME280;57582;-34.876;138.628;2023-06-14T10:14:38;101224;;;15.13;73.72
70198;BME280;57582;-34.876;138.628;2023-06-14T10:23:40;101218;;;15.38;72.71
70198;BME280;57582;-34.876;138.628;2023-06-14T10:26:57;101213;;;15.42;72.31
70198;BME280;57582;-34.876;138.628;2023-06-14T10:33:02;101216;;;15.60;72.22
70198;BME280;57582;-34.876;138.628;2023-06-14T10:35:38;101205;;;15.63;72.15
70198;BME280;57582;-34.876;138.628;2023-06-14T10:38:38;101211;;;15.62;71.99
70198;BME280;57582;-34.876;138.628;2023-06-14T10:41:39;101207;;;15.51;72.36
70198;BME280;57582;-34.876;138.628;2023-06-14T10:44:41;101216;;;15.52;72.52
70198;BME280;57582;-34.876;138.628;2023-06-14T10:47:38;101200;;;15.51;72.52
70198;BME280;57582;-34.876;138.628;2023-06-14T10:50:39;101197;;;15.29;73.54
70198;BME280;57582;-34.876;138.628;2023-06-14T10:53:40;101203;;;15.25;73.77
70198;BME280;57582;-34.876;138.628;2023-06-14T10:56:45;101201;;;15.38;73.32
70198;BME280;57582;-34.876;138.628;2023-06-14T10:59:38;101207;;;15.51;72.94
70198;BME280;57582;-34.876;138.628;2023-06-14T11:02:48;101210;;;15.63;72.50
70198;BME280;57582;-34.876;138.628;2023-06-14T11:05:41;101210;;;15.60;72.34
70198;BME280;57582;-34.876;138.628;2023-06-14T11:11:38;101204;;;15.01;75.33
70198;BME280;57582;-34.876;138.628;2023-06-14T11:14:39;101202;;;15.11;75.28
70198;BME280;57582;-34.876;138.628;2023-06-14T11:17:38;101200;;;15.24;75.06
70198;BME280;57582;-34.876;138.628;2023-06-14T11:20:39;101198;;;15.30;74.63
70198;BME280;57582;-34.876;138.628;2023-06-14T11:23:38;101202;;;15.48;74.38
70198;BME280;57582;-34.876;138.628;2023-06-14T11:26:39;101204;;;15.42;74.22
70198;BME280;57582;-34.876;138.628;2023-06-14T11:29:38;101203;;;15.25;74.89
70198;BME280;57582;-34.876;138.628;2023-06-14T11:32:39;101200;;;15.13;75.29
70198;BME280;57582;-34.876;138.628;2023-06-14T11:35:39;101208;;;15.05;75.63
70198;BME280;57582;-34.876;138.628;2023-06-14T11:38:40;101201;;;15.09;75.65
70198;BME280;57582;-34.876;138.628;2023-06-14T11:41:40;101205;;;14.89;75.97
70198;BME280;57582;-34.876;138.628;2023-06-14T11:44:39;101201;;;14.90;76.35
70198;BME280;57582;-34.876;138.628;2023-06-14T11:47:39;101204;;;14.88;76.17
70198;BME280;57582;-34.876;138.628;2023-06-14T11:50:39;101206;;;14.88;76.29
70198;BME280;57582;-34.876;138.628;2023-06-14T11:53:38;101206;;;14.83;76.38
70198;BME280;57582;-34.876;138.628;2023-06-14T11:56:39;101206;;;14.71;76.77
70198;BME280;57582;-34.876;138.628;2023-06-14T11:59:39;101201;;;14.54;77.52
70198;BME280;57582;-34.876;138.628;2023-06-14T12:02:39;101206;;;14.68;77.00
70198;BME280;57582;-34.876;138.628;2023-06-14T12:05:38;101212;;;14.76;76.73
70198;BME280;57582;-34.876;138.628;2023-06-14T12:08:39;101207;;;14.90;76.22
70198;BME280;57582;-34.876;138.628;2023-06-14T12:11:38;101204;;;15.01;75.66
70198;BME280;57582;-34.876;138.628;2023-06-14T12:14:41;101202;;;15.00;75.33
70198;BME280;57582;-34.876;138.628;2023-06-14T12:17:38;101211;;;14.86;75.62
70198;BME280;57582;-34.876;138.628;2023-06-14T12:20:39;101209;;;14.81;75.78
70198;BME280;57582;-34.876;138.628;2023-06-14T12:26:39;101204;;;14.67;76.10
70198;BME280;57582;-34.876;138.628;2023-06-14T12:29:38;101206;;;14.80;75.70
70198;BME280;57582;-34.876;138.628;2023-06-14T12:32:39;101200;;;14.83;75.11
70198;BME280;57582;-34.876;138.628;2023-06-14T12:35:38;101198;;;14.89;74.84
70198;BME280;57582;-34.876;138.628;2023-06-14T12:38:39;101190;;;14.70;75.10
70198;BME280;57582;-34.876;138.628;2023-06-14T12:41:38;101189;;;14.58;75.40
70198;BME280;57582;-34.876;138.628;2023-06-14T12:44:39;101184;;;14.69;75.24
70198;BME280;57582;-34.876;138.628;2023-06-14T12:47:38;101180;;;14.54;75.61
70198;BME280;57582;-34.876;138.628;2023-06-14T12:50:39;101186;;;14.37;76.47
70198;BME280;57582;-34.876;138.628;2023-06-14T12:53:38;101180;;;14.38;76.69
70198;BME280;57582;-34.876;138.628;2023-06-14T12:56:39;101185;;;14.34;76.81
70198;BME280;57582;-34.876;138.628;2023-06-14T12:59:38;101187;;;14.26;77.04
70198;BME280;57582;-34.876;138.628;2023-06-14T13:02:39;101179;;;14.18;77.37
70198;BME280;57582;-34.876;138.628;2023-06-14T13:05:38;101174;;;14.26;76.86
70198;BME280;57582;-34.876;138.628;2023-06-14T13:08:39;101171;;;14.08;77.27
70198;BME280;57582;-34.876;138.628;2023-06-14T13:11:38;101169;;;14.05;77.62
70198;BME280;57582;-34.876;138.628;2023-06-14T13:14:39;101164;;;13.96;77.86
70198;BME280;57582;-34.876;138.628;2023-06-14T13:17:38;101167;;;13.99;77.67
70198;BME280;57582;-34.876;138.628;2023-06-14T13:20:39;101164;;;14.04;77.47
70198;BME280;57582;-34.876;138.628;2023-06-14T13:23:38;101173;;;14.12;77.22
70198;BME280;57582;-34.876;138.628;2023-06-14T13:26:39;101166;;;14.07;77.30
70198;BME280;57582;-34.876;138.628;2023-06-14T13:29:38;101162;;;14.21;76.67
70198;BME280;57582;-34.876;138.628;2023-06-14T13:32:39;101176;;;14.18;76.64
70198;BME280;57582;-34.876;138.628;2023-06-14T13:35:38;101170;;;14.16;76.47
70198;BME280;57582;-34.876;138.628;2023-06-14T13:38:39;101170;;;13.98;77.13
70198;BME280;57582;-34.876;138.628;2023-06-14T13:41:38;101173;;;14.06;77.96
70198;BME280;57582;-34.876;138.628;2023-06-14T13:44:39;101166;;;14.20;76.62
70198;BME280;57582;-34.876;138.628;2023-06-14T13:47:39;101163;;;14.28;76.21
70198;BME280;57582;-34.876;138.628;2023-06-14T13:50:39;101165;;;14.55;75.11
70198;BME280;57582;-34.876;138.628;2023-06-14T13:53:38;101173;;;14.77;74.14
70198;BME280;57582;-34.876;138.628;2023-06-14T13:56:39;101174;;;14.81;73.20
70198;BME280;57582;-34.876;138.628;2023-06-14T13:59:39;101163;;;15.02;72.36
70198;BME280;57582;-34.876;138.628;2023-06-14T14:02:39;101170;;;15.13;71.72
70198;BME280;57582;-34.876;138.628;2023-06-14T14:05:38;101165;;;14.99;71.29
70198;BME280;57582;-34.876;138.628;2023-06-14T14:08:39;101171;;;15.00;72.05
70198;BME280;57582;-34.876;138.628;2023-06-14T14:11:39;101158;;;14.82;72.38
70198;BME280;57582;-34.876;138.628;2023-06-14T14:14:39;101159;;;14.81;72.23
70198;BME280;57582;-34.876;138.628;2023-06-14T14:17:38;101151;;;14.79;72.20
70198;BME280;57582;-34.876;138.628;2023-06-14T14:20:39;101158;;;14.57;72.86
70198;BME280;57582;-34.876;138.628;2023-06-14T14:23:38;101151;;;14.72;72.20
70198;BME280;57582;-34.876;138.628;2023-06-14T14:26:39;101151;;;14.68;72.01
70198;BME280;57582;-34.876;138.628;2023-06-14T14:29:38;101144;;;14.55;72.42
70198;BME280;57582;-34.876;138.628;2023-06-14T14:32:39;101142;;;14.46;73.08
70198;BME280;57582;-34.876;138.628;2023-06-14T14:35:38;101138;;;14.55;72.59
70198;BME280;57582;-34.876;138.628;2023-06-14T14:38:39;101133;;;14.39;72.70
70198;BME280;57582;-34.876;138.628;2023-06-14T14:41:39;101135;;;14.37;72.93
70198;BME280;57582;-34.876;138.628;2023-06-14T14:44:39;101129;;;14.50;72.03
70198;BME280;57582;-34.876;138.628;2023-06-14T14:47:39;101129;;;14.56;72.02
70198;BME280;57582;-34.876;138.628;2023-06-14T14:50:39;101126;;;14.70;71.30
70198;BME280;57582;-34.876;138.628;2023-06-14T14:53:39;101131;;;14.54;71.61
70198;BME280;57582;-34.876;138.628;2023-06-14T14:56:39;101132;;;14.77;71.05
70198;BME280;57582;-34.876;138.628;2023-06-14T14:59:39;101120;;;14.82;70.69
70198;BME280;57582;-34.876;138.628;2023-06-14T15:02:39;101124;;;14.72;70.56
70198;BME280;57582;-34.876;138.628;2023-06-14T15:05:39;101114;;;14.68;70.31
70198;BME280;57582;-34.876;138.628;2023-06-14T15:08:39;101112;;;14.41;71.25
70198;BME280;57582;-34.876;138.628;2023-06-14T15:11:39;101111;;;14.19;72.11
70198;BME280;57582;-34.876;138.628;2023-06-14T15:14:39;101107;;;14.24;71.98
70198;BME280;57582;-34.876;138.628;2023-06-14T15:17:39;101105;;;14.16;72.00
70198;BME280;57582;-34.876;138.628;2023-06-14T15:20:39;101109;;;14.08;72.01
70198;BME280;57582;-34.876;138.628;2023-06-14T15:23:39;101111;;;14.09;71.82
70198;BME280;57582;-34.876;138.628;2023-06-14T15:26:39;101108;;;13.88;72.72
70198;BME280;57582;-34.876;138.628;2023-06-14T15:29:40;101104;;;13.78;73.02
70198;BME280;57582;-34.876;138.628;2023-06-14T15:32:39;101108;;;13.53;73.78
70198;BME280;57582;-34.876;138.628;2023-06-14T15:35:39;101101;;;13.16;75.37
70198;BME280;57582;-34.876;138.628;2023-06-14T15:38:39;101102;;;13.28;75.11
70198;BME280;57582;-34.876;138.628;2023-06-14T15:41:39;101097;;;13.30;74.72
70198;BME280;57582;-34.876;138.628;2023-06-14T15:44:39;101106;;;13.45;74.32
70198;BME280;57582;-34.876;138.628;2023-06-14T15:47:39;101098;;;13.22;74.60
70198;BME280;57582;-34.876;138.628;2023-06-14T15:50:39;101093;;;13.15;74.98
70198;BME280;57582;-34.876;138.628;2023-06-14T15:53:39;101099;;;13.02;75.22
70198;BME280;57582;-34.876;138.628;2023-06-14T15:56:39;101099;;;13.01;75.57
70198;BME280;57582;-34.876;138.628;2023-06-14T15:59:39;101101;;;13.02;75.16